TAF KSAW
KSAW 090520Z 0906/1006 22005KT P6SM OVC060 FM091000 19009KT P6SM VCSH SCT026 OVC040 FM091200 18013G28KT 4SM -SN OVC020 FM091700 18015G30KT 1SM -SN OVC013 FM092200 19013G27KT 3SM -SN OVC017=
METAR KSAW
WC KSAW
WS KSAW
WV KSAW